Time;durP1;ratioP1;P1;durP2;ratioP2;P2;SDS_P1;SDS_P2;PMS_P1;PMS_P2;Temp;Humidity;BMP_temperature;BMP_pressure;BME280_temperature;BME280_humidity;BME280_pressure;Samples;Min_cycle;Max_cycle;Signal;HPM_P1;HPM_P2
2022/03/04 00:02:03;;;;;;;15.48;7.30;;;0.80;99.90;;;;;;5068826;28;20044;-56
2022/03/04 00:04:30;;;;;;;13.27;6.82;;;0.80;99.90;;;;;;5052726;28;20056;-58
2022/03/04 00:06:56;;;;;;;17.60;8.65;;;0.70;99.90;;;;;;5048311;28;20082;-56
2022/03/04 00:09:22;;;;;;;14.02;7.60;;;0.80;99.90;;;;;;5053029;28;20048;-56
2022/03/04 00:11:48;;;;;;;13.85;7.43;;;0.70;99.90;;;;;;5066007;28;20080;-58
2022/03/04 00:14:14;;;;;;;16.63;8.10;;;0.70;99.90;;;;;;5051155;28;20156;-57
2022/03/04 00:16:39;;;;;;;15.55;7.75;;;0.70;99.90;;;;;;5066305;28;20075;-57
2022/03/04 00:19:12;;;;;;;19.95;8.93;;;0.90;99.90;;;;;;5065865;28;20041;-57
2022/03/04 00:21:38;;;;;;;12.90;7.10;;;1.10;99.90;;;;;;5052195;28;20552;-57
2022/03/04 00:24:05;;;;;;;19.13;9.48;;;0.70;99.90;;;;;;5052757;28;20048;-58
2022/03/04 00:26:31;;;;;;;17.65;7.43;;;1.70;99.90;;;;;;5067990;28;20094;-55
2022/03/04 00:28:57;;;;;;;12.93;7.63;;;0.60;99.90;;;;;;5053218;28;20514;-56
2022/03/04 00:31:23;;;;;;;14.88;7.35;;;0.60;99.90;;;;;;5065796;28;20190;-57
2022/03/04 00:33:50;;;;;;;17.75;8.35;;;0.60;99.90;;;;;;5052930;28;20131;-56
2022/03/04 00:36:16;;;;;;;14.30;8.45;;;0.50;99.90;;;;;;5048522;28;20048;-56
2022/03/04 00:38:41;;;;;;;13.65;8.15;;;0.60;99.90;;;;;;5064531;28;20501;-56
2022/03/04 00:41:07;;;;;;;25.98;9.57;;;0.50;99.90;;;;;;5057529;28;20049;-57
2022/03/04 00:43:33;;;;;;;16.08;8.60;;;0.50;99.90;;;;;;5048946;28;20049;-56
2022/03/04 00:45:59;;;;;;;15.85;8.77;;;0.50;99.90;;;;;;5051327;28;20048;-56
2022/03/04 00:48:25;;;;;;;14.38;9.23;;;0.50;99.90;;;;;;5048200;28;20048;-56
2022/03/04 00:50:50;;;;;;;14.52;8.25;;;0.50;99.90;;;;;;5057829;28;20137;-57
2022/03/04 00:53:16;;;;;;;17.83;8.90;;;0.90;99.90;;;;;;5063256;28;20090;-56
2022/03/04 00:55:42;;;;;;;16.63;8.98;;;0.40;99.90;;;;;;5057726;28;20747;-70
2022/03/04 01:10:09;;;;;;;16.10;8.57;;;0.20;99.90;;;;;;5050652;28;20155;-69
2022/03/04 01:12:35;;;;;;;18.42;9.93;;;0.20;99.90;;;;;;5066139;28;20136;-65
2022/03/04 01:15:02;;;;;;;18.17;8.85;;;0.20;99.90;;;;;;5062058;28;20181;-56
2022/03/04 01:17:27;;;;;;;16.63;10.02;;;0.10;99.90;;;;;;5048875;28;20445;-56
2022/03/04 01:19:53;;;;;;;17.35;9.52;;;0.10;99.90;;;;;;5056113;28;20049;-56
2022/03/04 01:22:19;;;;;;;18.55;9.05;;;0.10;99.90;;;;;;5057525;28;20609;-56
2022/03/04 01:24:44;;;;;;;14.55;8.32;;;0.00;99.90;;;;;;5057070;28;20455;-56
2022/03/04 01:27:10;;;;;;;15.65;9.45;;;0.00;99.90;;;;;;5057059;28;20100;-56
2022/03/04 01:29:36;;;;;;;16.70;8.60;;;-0.10;99.90;;;;;;5051256;28;20100;-55
2022/03/04 01:32:02;;;;;;;18.13;8.48;;;-0.20;99.90;;;;;;5064000;28;20038;-56
2022/03/04 01:34:27;;;;;;;13.95;8.20;;;-0.20;99.90;;;;;;5045978;28;20052;-56
2022/03/04 01:36:53;;;;;;;15.52;8.35;;;-0.20;99.90;;;;;;5059241;28;20044;-57
2022/03/04 01:39:19;;;;;;;15.68;7.75;;;-0.30;99.90;;;;;;5050765;28;20044;-56
2022/03/04 01:41:44;;;;;;;15.32;8.20;;;-0.30;99.90;;;;;;5049370;28;20899;-57
2022/03/04 01:44:10;;;;;;;16.30;8.65;;;0.30;99.90;;;;;;5046822;28;20072;-58
2022/03/04 01:46:36;;;;;;;15.43;8.50;;;-0.40;99.90;;;;;;5055339;28;20041;-58
2022/03/04 01:49:02;;;;;;;17.38;9.20;;;-0.40;99.90;;;;;;5052039;28;20139;-56
2022/03/04 01:51:28;;;;;;;12.50;7.05;;;-0.40;99.90;;;;;;5057612;28;20060;-58
2022/03/04 01:53:54;;;;;;;15.10;8.23;;;-0.40;99.90;;;;;;5060434;28;20044;-58
2022/03/04 01:56:20;;;;;;;18.63;8.70;;;-0.50;99.90;;;;;;5056378;28;20090;-57
2022/03/04 01:58:46;;;;;;;18.52;8.82;;;-0.50;99.90;;;;;;5056897;28;20075;-56
2022/03/04 02:01:12;;;;;;;18.08;9.20;;;-0.50;99.90;;;;;;5049400;28;20036;-61
2022/03/04 02:03:38;;;;;;;16.08;8.35;;;-0.60;99.90;;;;;;5057767;28;20543;-57
2022/03/04 02:06:03;;;;;;;14.88;8.88;;;-0.60;99.90;;;;;;5063669;28;20482;-64
2022/03/04 02:08:29;;;;;;;18.83;9.13;;;-0.60;99.90;;;;;;5057964;28;20510;-66
2022/03/04 02:10:55;;;;;;;19.80;9.52;;;-0.60;99.90;;;;;;5056126;28;20118;-70
2022/03/04 02:13:21;;;;;;;18.05;10.23;;;-0.60;99.90;;;;;;5050898;28;20061;-69
2022/03/04 02:15:47;;;;;;;16.05;9.50;;;-0.60;99.90;;;;;;5050501;28;20042;-62
2022/03/04 02:18:14;;;;;;;19.55;10.63;;;-0.60;99.90;;;;;;5066307;28;20051;-63
2022/03/04 02:20:44;;;;;;;19.08;9.35;;;-0.60;99.90;;;;;;5065195;28;20475;-66
2022/03/04 02:23:13;;;;;;;21.98;8.77;;;-0.60;99.90;;;;;;5057991;28;20048;-67
2022/03/04 02:25:47;;;;;;;19.13;9.82;;;-0.60;99.90;;;;;;5046021;28;20110;-64
2022/03/04 02:28:13;;;;;;;20.67;10.88;;;-0.60;99.90;;;;;;5060518;28;20106;-62
2022/03/04 02:30:38;;;;;;;20.33;9.98;;;-0.60;99.90;;;;;;5050376;28;20044;-64
2022/03/04 02:33:06;;;;;;;23.30;10.55;;;-0.60;99.90;;;;;;5058621;28;20469;-67
2022/03/04 02:35:32;;;;;;;18.17;9.88;;;-0.60;99.90;;;;;;5047707;28;20486;-61
2022/03/04 02:37:58;;;;;;;16.90;9.38;;;-0.60;99.90;;;;;;5053953;28;20066;-64
2022/03/04 02:40:24;;;;;;;18.50;10.02;;;-0.60;99.90;;;;;;5055248;28;20047;-61
2022/03/04 02:42:50;;;;;;;19.67;10.45;;;-0.60;99.90;;;;;;5060335;28;20132;-62
2022/03/04 02:45:17;;;;;;;18.00;9.77;;;-0.60;99.90;;;;;;5045939;28;20124;-70
2022/03/04 02:47:43;;;;;;;17.63;9.20;;;-0.60;99.90;;;;;;5047715;28;20052;-68
2022/03/04 02:50:09;;;;;;;20.63;10.90;;;-0.60;99.90;;;;;;5046316;28;20056;-55
2022/03/04 02:52:35;;;;;;;23.40;10.27;;;-0.60;99.90;;;;;;5052601;28;20051;-56
2022/03/04 02:55:01;;;;;;;21.08;9.52;;;-0.60;99.90;;;;;;5066081;28;20048;-56
2022/03/04 02:57:27;;;;;;;19.52;10.00;;;-0.60;99.90;;;;;;5055370;28;20395;-56
2022/03/04 02:59:52;;;;;;;23.92;11.75;;;-0.60;99.90;;;;;;5060010;28;20056;-57
2022/03/04 03:02:18;;;;;;;18.60;10.27;;;-0.70;99.90;;;;;;5064823;28;20059;-56
2022/03/04 03:04:44;;;;;;;17.30;9.30;;;-0.70;99.90;;;;;;5062646;28;20124;-56
2022/03/04 03:07:10;;;;;;;19.45;9.00;;;-0.70;99.90;;;;;;5057684;28;20403;-56
2022/03/04 03:09:36;;;;;;;21.65;11.00;;;-0.50;99.90;;;;;;5049679;28;20065;-56
2022/03/04 03:12:01;;;;;;;22.20;11.55;;;-0.70;99.90;;;;;;5057267;28;20411;-56
2022/03/04 03:14:27;;;;;;;20.67;10.43;;;-0.70;99.90;;;;;;5053643;28;20056;-58
2022/03/04 03:16:53;;;;;;;17.92;10.23;;;-0.70;99.90;;;;;;5056420;28;20182;-56
2022/03/04 03:19:18;;;;;;;20.15;11.23;;;-0.70;99.90;;;;;;5049972;28;20544;-56
2022/03/04 03:21:44;;;;;;;22.05;10.07;;;-0.80;99.90;;;;;;5055853;28;20518;-56
2022/03/04 03:24:09;;;;;;;20.10;10.32;;;-0.70;99.90;;;;;;5066755;28;20073;-56
2022/03/04 03:26:35;;;;;;;23.63;12.10;;;-0.70;99.90;;;;;;5060612;28;20479;-56
2022/03/04 03:29:01;;;;;;;18.58;10.10;;;-0.80;99.90;;;;;;5068606;28;20091;-56
2022/03/04 03:31:26;;;;;;;21.70;11.30;;;-0.70;99.90;;;;;;5058191;28;20041;-56
2022/03/04 03:33:52;;;;;;;21.27;12.23;;;-0.80;99.90;;;;;;5062459;28;20040;-56
2022/03/04 03:36:20;;;;;;;17.90;10.52;;;-0.90;99.90;;;;;;5059053;28;20052;-57
2022/03/04 03:38:46;;;;;;;22.45;12.32;;;-0.90;99.90;;;;;;5049652;28;20099;-56
2022/03/04 03:41:11;;;;;;;23.55;11.80;;;-0.80;99.90;;;;;;5058850;28;20529;-56
2022/03/04 03:43:39;;;;;;;23.70;11.50;;;-0.90;99.90;;;;;;5062165;28;20126;-57
2022/03/04 03:46:05;;;;;;;26.50;12.98;;;-0.80;99.90;;;;;;5055811;28;20040;-56
2022/03/04 03:48:30;;;;;;;21.27;12.40;;;-0.70;99.90;;;;;;5066193;28;20086;-56
2022/03/04 03:50:56;;;;;;;24.38;12.95;;;-0.70;99.90;;;;;;5059795;28;20120;-57
2022/03/04 03:53:22;;;;;;;25.23;12.10;;;-0.70;99.90;;;;;;5063990;28;20083;-57
2022/03/04 03:55:47;;;;;;;24.33;13.10;;;-0.60;99.90;;;;;;5064767;28;20047;-56
2022/03/04 03:58:13;;;;;;;20.65;11.23;;;-0.60;99.90;;;;;;5063722;28;20054;-56
2022/03/04 04:00:39;;;;;;;24.85;13.18;;;0.60;99.90;;;;;;5060447;28;20066;-56
2022/03/04 04:03:04;;;;;;;24.92;12.73;;;-0.50;99.90;;;;;;5065443;28;20782;-61
2022/03/04 04:05:30;;;;;;;25.52;13.82;;;-0.50;99.90;;;;;;5068097;28;20265;-60
2022/03/04 04:07:56;;;;;;;19.90;11.40;;;-0.50;99.90;;;;;;5058678;28;20037;-64
2022/03/04 04:10:22;;;;;;;22.95;11.75;;;-0.40;99.90;;;;;;5050025;28;20053;-62
2022/03/04 04:12:48;;;;;;;20.88;12.98;;;-0.40;99.90;;;;;;5058772;28;20080;-60
2022/03/04 04:15:13;;;;;;;20.50;12.07;;;-0.50;99.90;;;;;;5048581;28;20087;-65
2022/03/04 04:17:39;;;;;;;21.55;11.20;;;-0.40;99.90;;;;;;5053220;28;20083;-59
2022/03/04 04:20:06;;;;;;;24.70;12.57;;;-0.40;99.90;;;;;;5052432;28;20048;-60
2022/03/04 04:22:32;;;;;;;21.88;12.07;;;-0.50;99.90;;;;;;5049646;28;20420;-64
2022/03/04 04:24:57;;;;;;;23.67;12.48;;;-0.50;99.90;;;;;;5048746;28;20387;-60
2022/03/04 04:27:23;;;;;;;24.00;13.48;;;-0.40;99.90;;;;;;5062368;28;20047;-59
2022/03/04 04:29:49;;;;;;;22.88;12.57;;;-0.40;99.90;;;;;;5067922;28;20410;-69
2022/03/04 04:32:15;;;;;;;20.73;11.13;;;-0.30;99.90;;;;;;5055730;28;20509;-56
2022/03/04 04:34:41;;;;;;;26.35;12.35;;;-0.40;99.90;;;;;;5047926;28;20053;-56
2022/03/04 04:37:07;;;;;;;23.20;11.88;;;-0.40;99.90;;;;;;5047432;28;20092;-56
2022/03/04 04:39:32;;;;;;;23.77;12.10;;;-0.40;99.90;;;;;;5047499;28;20136;-57
2022/03/04 04:41:58;;;;;;;24.23;12.48;;;-0.40;99.90;;;;;;5048494;28;20128;-58
2022/03/04 04:44:24;;;;;;;22.75;13.85;;;-0.40;99.90;;;;;;5047998;28;20059;-57
2022/03/04 04:46:49;;;;;;;20.45;12.85;;;-0.40;99.90;;;;;;5062455;28;20083;-56
2022/03/04 04:49:15;;;;;;;20.83;11.30;;;-0.40;99.90;;;;;;5053247;28;20135;-56
2022/03/04 04:51:41;;;;;;;21.42;12.77;;;-0.40;99.90;;;;;;5047875;28;20056;-56
2022/03/04 04:54:06;;;;;;;30.35;12.43;;;-0.40;99.90;;;;;;5060082;28;20053;-56
2022/03/04 04:56:32;;;;;;;23.92;12.38;;;-0.30;99.90;;;;;;5059667;28;20060;-56
2022/03/04 04:58:57;;;;;;;23.40;12.63;;;-0.30;99.90;;;;;;5061786;28;20047;-57
2022/03/04 05:01:23;;;;;;;27.02;13.02;;;0.00;99.90;;;;;;5067062;28;20066;-56
2022/03/04 05:03:49;;;;;;;25.13;12.52;;;-0.30;99.90;;;;;;5061814;28;20063;-59
2022/03/04 05:06:14;;;;;;;23.50;11.68;;;-0.40;99.90;;;;;;5052743;28;20140;-56
2022/03/04 05:08:40;;;;;;;23.83;13.27;;;-0.40;99.90;;;;;;5059622;28;20507;-56
2022/03/04 05:11:06;;;;;;;22.88;13.98;;;0.10;99.90;;;;;;5047720;28;20045;-57
2022/03/04 05:13:31;;;;;;;27.10;13.55;;;-0.40;99.90;;;;;;5056518;28;20159;-57
2022/03/04 05:15:57;;;;;;;24.63;14.55;;;-0.40;99.90;;;;;;5054375;28;20033;-56
2022/03/04 05:18:23;;;;;;;24.10;12.45;;;-0.40;99.90;;;;;;5063856;28;20095;-56
2022/03/04 05:20:48;;;;;;;26.13;12.95;;;-0.40;99.90;;;;;;5060304;28;20041;-59
2022/03/04 05:23:58;;;;;;;25.38;13.80;;;-0.40;99.90;;;;;;5063208;28;20102;-58
2022/03/04 05:26:00;;;;;;;21.52;12.15;;;-0.40;99.90;;;;;;5059060;28;20049;-57
2022/03/04 05:28:26;;;;;;;22.77;12.73;;;-0.40;99.90;;;;;;5050982;28;20394;-59
2022/03/04 05:30:51;;;;;;;24.77;12.48;;;-0.40;99.90;;;;;;5060777;28;20040;-57
2022/03/04 05:33:17;;;;;;;23.77;12.07;;;-0.40;99.90;;;;;;5054281;28;20045;-58
2022/03/04 05:35:43;;;;;;;25.40;12.18;;;-0.30;99.90;;;;;;5047343;28;20052;-56
2022/03/04 05:38:08;;;;;;;21.17;12.88;;;-0.40;99.90;;;;;;5064417;28;20605;-56
2022/03/04 05:40:34;;;;;;;19.98;12.00;;;-0.40;99.90;;;;;;5051636;28;20047;-57
2022/03/04 05:43:00;;;;;;;24.13;12.90;;;-0.40;99.90;;;;;;5065510;28;20050;-56
2022/03/04 05:45:25;;;;;;;19.23;11.18;;;-0.40;99.90;;;;;;5064928;28;20053;-63
2022/03/04 05:47:51;;;;;;;25.58;14.07;;;-0.30;99.90;;;;;;5052413;28;20045;-63
2022/03/04 05:50:16;;;;;;;25.88;13.55;;;-0.30;99.90;;;;;;5049855;28;20560;-56
2022/03/04 05:52:42;;;;;;;26.45;13.48;;;-0.30;99.90;;;;;;5051490;28;20040;-65
2022/03/04 05:55:08;;;;;;;21.25;13.15;;;-0.30;99.90;;;;;;5061930;28;20106;-59
2022/03/04 05:57:34;;;;;;;22.90;12.43;;;-0.30;99.90;;;;;;5050787;28;20041;-60
2022/03/04 06:00:00;;;;;;;21.20;13.05;;;-0.20;99.90;;;;;;5055585;28;20055;-56
2022/03/04 06:02:27;;;;;;;25.63;12.07;;;-0.30;99.90;;;;;;5063825;28;20041;-63
2022/03/04 06:04:53;;;;;;;24.65;12.90;;;-0.20;99.90;;;;;;5065265;28;20052;-56
2022/03/04 06:07:19;;;;;;;21.02;12.07;;;-0.20;99.90;;;;;;5058487;28;20458;-56
2022/03/04 06:09:44;;;;;;;23.55;12.13;;;-0.20;99.90;;;;;;5057101;28;20045;-56
2022/03/04 06:12:10;;;;;;;23.30;12.10;;;-0.30;99.90;;;;;;5046805;28;20395;-56
2022/03/04 06:14:36;;;;;;;21.95;13.38;;;-0.30;99.90;;;;;;5053028;28;20402;-57
2022/03/04 06:17:04;;;;;;;20.33;12.27;;;-0.30;99.90;;;;;;5058348;28;20054;-56
2022/03/04 06:19:29;;;;;;;22.02;13.52;;;-0.30;99.90;;;;;;5047505;28;20067;-56
2022/03/04 06:21:55;;;;;;;20.05;11.15;;;-0.30;99.90;;;;;;5064936;28;20045;-56
2022/03/04 06:24:21;;;;;;;20.83;12.05;;;-0.30;99.90;;;;;;5055672;28;20053;-56
2022/03/04 06:26:46;;;;;;;21.67;12.45;;;0.60;99.90;;;;;;5051451;28;20041;-56
2022/03/04 06:29:12;;;;;;;18.88;11.93;;;-0.10;99.90;;;;;;5060145;28;20552;-59
2022/03/04 06:31:37;;;;;;;22.42;12.32;;;-0.30;99.90;;;;;;5057482;28;20045;-64
2022/03/04 06:34:04;;;;;;;22.83;13.90;;;-0.30;99.90;;;;;;5051845;28;20040;-57
2022/03/04 06:36:30;;;;;;;22.77;11.85;;;-0.20;99.90;;;;;;5057781;28;20045;-65
2022/03/04 06:38:55;;;;;;;23.90;12.05;;;-0.20;99.90;;;;;;5069097;28;20097;-65
2022/03/04 06:41:21;;;;;;;22.13;12.23;;;-0.20;99.90;;;;;;5065247;28;20052;-56
2022/03/04 06:43:48;;;;;;;22.30;11.75;;;-0.20;99.90;;;;;;5055335;28;20052;-56
2022/03/04 06:46:15;;;;;;;19.83;11.85;;;-0.20;99.90;;;;;;5062680;28;20149;-55
2022/03/04 06:48:41;;;;;;;27.60;13.43;;;-0.20;99.90;;;;;;5048467;28;20052;-56
2022/03/04 06:51:06;;;;;;;21.85;11.82;;;-0.20;99.90;;;;;;5042314;28;20123;-56
2022/03/04 06:53:32;;;;;;;18.85;12.35;;;-0.20;99.90;;;;;;5068556;28;20492;-56
2022/03/04 06:55:58;;;;;;;22.52;12.77;;;-0.20;99.90;;;;;;5057928;28;20568;-56
2022/03/04 06:58:25;;;;;;;18.40;11.73;;;-0.10;99.90;;;;;;5060261;28;20044;-56
2022/03/04 07:00:51;;;;;;;26.27;13.32;;;-0.10;99.90;;;;;;5060143;28;20492;-56
2022/03/04 07:03:16;;;;;;;20.88;12.45;;;0.00;99.90;;;;;;5057794;28;20055;-56
2022/03/04 07:05:43;;;;;;;24.15;13.80;;;0.00;99.90;;;;;;5061049;28;20542;-56
2022/03/04 07:08:12;;;;;;;23.00;13.10;;;0.00;99.90;;;;;;5050027;28;20040;-55
2022/03/04 07:10:48;;;;;;;21.95;13.25;;;0.10;99.90;;;;;;5049467;28;20053;-56
2022/03/04 07:13:14;;;;;;;21.80;12.43;;;0.10;99.90;;;;;;5049642;28;20491;-56
2022/03/04 07:15:40;;;;;;;23.83;12.60;;;0.10;99.90;;;;;;5066265;28;20061;-56
2022/03/04 07:18:06;;;;;;;27.70;13.80;;;0.20;99.90;;;;;;5057824;28;20516;-56
2022/03/04 07:20:32;;;;;;;20.80;12.52;;;0.20;99.90;;;;;;5065661;28;20043;-56
2022/03/04 07:22:58;;;;;;;20.60;11.90;;;0.30;99.90;;;;;;5063891;28;20076;-56
2022/03/04 07:25:23;;;;;;;22.02;11.45;;;0.40;99.90;;;;;;5059345;28;20044;-56
2022/03/04 07:27:49;;;;;;;21.35;12.38;;;0.40;99.90;;;;;;5058248;28;20110;-56
2022/03/04 07:30:16;;;;;;;20.38;11.70;;;0.40;99.90;;;;;;5058431;28;20037;-56
2022/03/04 07:32:43;;;;;;;22.52;11.80;;;0.40;99.90;;;;;;5062285;28;20142;-57
2022/03/04 07:35:11;;;;;;;24.88;13.10;;;0.50;99.90;;;;;;5053485;28;20055;-56
2022/03/04 07:37:37;;;;;;;21.13;11.00;;;0.60;99.90;;;;;;5054595;28;20045;-61
2022/03/04 07:40:04;;;;;;;17.40;10.45;;;0.70;99.90;;;;;;5067777;28;20040;-62
2022/03/04 07:42:30;;;;;;;17.48;10.02;;;0.80;99.90;;;;;;5050557;28;20053;-56
2022/03/04 07:44:56;;;;;;;19.95;11.02;;;0.80;99.90;;;;;;5048623;28;20045;-62
2022/03/04 07:47:22;;;;;;;17.77;11.27;;;1.70;99.90;;;;;;5065514;28;20056;-61
2022/03/04 07:49:48;;;;;;;18.75;11.48;;;0.90;99.90;;;;;;5064771;28;20391;-61
2022/03/04 07:52:13;;;;;;;20.02;11.15;;;1.20;99.90;;;;;;5065237;28;20369;-64
2022/03/04 07:54:39;;;;;;;21.55;11.07;;;1.10;99.90;;;;;;5068283;28;20056;-61
2022/03/04 07:57:05;;;;;;;17.52;12.02;;;1.20;99.90;;;;;;5055191;28;20044;-64
2022/03/04 07:59:33;;;;;;;20.00;11.63;;;1.40;99.90;;;;;;5051439;28;20088;-61
2022/03/04 08:01:58;;;;;;;20.13;13.35;;;1.90;99.90;;;;;;5058013;28;20139;-63
2022/03/04 08:04:25;;;;;;;20.45;11.90;;;1.60;99.90;;;;;;5068084;28;20131;-60
2022/03/04 08:06:50;;;;;;;20.02;11.35;;;1.80;99.90;;;;;;5067281;28;20090;-66
2022/03/04 08:09:16;;;;;;;23.27;11.77;;;1.70;99.90;;;;;;5066001;28;20052;-56
2022/03/04 08:11:44;;;;;;;21.05;9.65;;;1.90;99.90;;;;;;5065814;28;20044;-68
2022/03/04 08:14:13;;;;;;;20.80;12.43;;;2.00;99.90;;;;;;5068236;28;20157;-61
2022/03/04 08:16:38;;;;;;;20.95;10.77;;;2.10;99.90;;;;;;5062018;28;20068;-56
2022/03/04 08:19:05;;;;;;;19.25;11.85;;;2.30;99.90;;;;;;5047625;28;20507;-63
2022/03/04 08:21:31;;;;;;;22.90;11.82;;;2.40;99.90;;;;;;5062954;28;20068;-63
2022/03/04 08:23:57;;;;;;;22.75;10.32;;;2.50;99.90;;;;;;5052856;28;20048;-66
2022/03/04 08:26:22;;;;;;;19.58;10.95;;;2.70;99.90;;;;;;5065657;28;20094;-66
2022/03/04 08:28:48;;;;;;;19.67;11.40;;;3.00;99.90;;;;;;5052651;28;20620;-58
2022/03/04 08:31:14;;;;;;;20.85;11.13;;;2.90;99.90;;;;;;5066691;28;20840;-59
2022/03/04 08:33:44;;;;;;;18.85;11.27;;;4.30;99.90;;;;;;5064333;28;20056;-59
2022/03/04 08:36:11;;;;;;;21.80;11.32;;;3.20;99.90;;;;;;5067637;28;20040;-57
2022/03/04 08:38:37;;;;;;;21.25;11.40;;;3.30;99.90;;;;;;5053237;28;20048;-59
2022/03/04 08:41:03;;;;;;;19.50;11.10;;;3.30;99.90;;;;;;5048833;28;20056;-59
2022/03/04 08:43:31;;;;;;;17.13;10.35;;;3.40;99.90;;;;;;5062593;28;20048;-56
2022/03/04 08:45:57;;;;;;;16.45;10.07;;;3.50;99.90;;;;;;5063700;28;20074;-59
2022/03/04 08:48:23;;;;;;;17.63;10.65;;;3.60;99.90;;;;;;5047688;28;20045;-56
2022/03/04 08:50:49;;;;;;;16.88;10.93;;;3.90;99.90;;;;;;5053479;28;20068;-64
2022/03/04 08:53:15;;;;;;;19.83;11.50;;;3.80;99.90;;;;;;5049769;28;20574;-63
2022/03/04 08:55:44;;;;;;;16.90;10.73;;;3.90;99.90;;;;;;5046810;28;20188;-61
2022/03/04 08:58:10;;;;;;;20.48;12.20;;;4.10;99.90;;;;;;5054685;28;20057;-68
2022/03/04 09:00:36;;;;;;;18.52;10.85;;;4.30;99.90;;;;;;5063299;28;20048;-64
2022/03/04 09:03:04;;;;;;;19.17;10.63;;;4.50;99.90;;;;;;5055631;28;20056;-66
2022/03/04 09:05:30;;;;;;;16.63;10.25;;;4.60;99.90;;;;;;5063645;28;20654;-68
2022/03/04 09:07:56;;;;;;;20.60;10.88;;;4.80;99.90;;;;;;5063733;28;20078;-63
2022/03/04 09:10:22;;;;;;;18.05;10.38;;;5.10;99.90;;;;;;5051310;28;20133;-58
2022/03/04 09:12:48;;;;;;;17.27;11.23;;;5.40;99.90;;;;;;5042804;28;20423;-64
2022/03/04 09:15:14;;;;;;;15.68;10.07;;;5.50;99.90;;;;;;5042669;28;20053;-62
2022/03/04 09:17:40;;;;;;;17.73;10.85;;;5.70;99.90;;;;;;5049878;28;20040;-56
2022/03/04 09:20:07;;;;;;;19.48;11.02;;;5.90;99.90;;;;;;5060446;28;20074;-57
2022/03/04 09:22:33;;;;;;;14.98;9.55;;;6.00;99.90;;;;;;5050664;28;20123;-60
2022/03/04 09:24:58;;;;;;;17.92;11.80;;;6.20;99.90;;;;;;5054757;28;20037;-60
2022/03/04 09:27:24;;;;;;;19.10;12.15;;;6.40;99.90;;;;;;5054121;28;20048;-57
2022/03/04 09:29:50;;;;;;;14.27;8.85;;;6.70;99.90;;;;;;5062873;28;20040;-65
2022/03/04 09:32:25;;;;;;;15.13;9.80;;;7.10;99.90;;;;;;5119555;27;20511;-59
2022/03/04 09:34:50;;;;;;;13.35;8.82;;;7.20;99.90;;;;;;5121266;28;20515;-57
2022/03/04 09:37:16;;;;;;;15.23;9.75;;;7.40;99.90;;;;;;5096758;28;20039;-55
2022/03/04 09:39:42;;;;;;;14.45;10.02;;;7.70;99.90;;;;;;5120928;27;20122;-58
2022/03/04 09:42:08;;;;;;;16.38;10.07;;;8.10;99.90;;;;;;5121359;27;20165;-56
2022/03/04 09:44:34;;;;;;;13.50;9.05;;;8.20;99.90;;;;;;5121117;27;20407;-56
2022/03/04 09:47:01;;;;;;;17.30;10.85;;;9.00;99.90;;;;;;5121215;27;20075;-56
2022/03/04 09:49:35;;;;;;;13.13;9.02;;;8.80;99.90;;;;;;5120737;27;20488;-56
2022/03/04 09:52:01;;;;;;;;;;;9.20;99.90;;;;;;5121592;27;20130;-58
2022/03/04 09:54:30;;;;;;;14.25;8.32;;;9.30;99.90;;;;;;5118825;28;20407;-58
2022/03/04 09:56:57;;;;;;;14.15;9.43;;;9.50;99.90;;;;;;5120257;27;20505;-57
2022/03/04 09:59:23;;;;;;;12.32;8.95;;;9.80;99.90;;;;;;5103546;28;20040;-56
2022/03/04 10:01:49;;;;;;;12.73;8.45;;;9.90;99.90;;;;;;5109873;27;20043;-57
2022/03/04 10:04:15;;;;;;;14.88;9.70;;;10.20;99.90;;;;;;5110927;27;20132;-56
2022/03/04 10:06:47;;;;;;;13.60;8.70;;;10.40;99.90;;;;;;5113265;28;20614;-58
2022/03/04 10:09:13;;;;;;;11.68;8.40;;;10.60;99.90;;;;;;5112314;27;20459;-57
2022/03/04 10:11:39;;;;;;;13.93;9.88;;;10.90;99.90;;;;;;5120884;27;20043;-57
2022/03/04 10:14:08;;;;;;;11.80;8.25;;;11.30;99.90;;;;;;5110664;27;20091;-57
2022/03/04 10:16:41;;;;;;;13.75;9.35;;;11.50;99.90;;;;;;5100414;28;20055;-62
2022/03/04 10:19:17;;;;;;;13.73;9.60;;;11.60;99.90;;;;;;5100626;28;20627;-56
2022/03/04 10:21:57;;;;;;;14.57;9.35;;;11.80;99.90;;;;;;5103025;28;20583;-57
2022/03/04 10:24:37;;;;;;;11.50;8.77;;;11.50;99.90;;;;;;5120419;27;20516;-56
2022/03/04 10:27:15;;;;;;;12.18;8.82;;;11.60;99.90;;;;;;5120300;27;20110;-59
2022/03/04 10:29:50;;;;;;;14.20;9.35;;;12.00;99.90;;;;;;5120475;27;20090;-56
2022/03/04 10:32:26;;;;;;;13.27;8.60;;;12.40;99.90;;;;;;5119082;27;20386;-56
2022/03/04 10:35:03;;;;;;;12.45;9.02;;;12.60;99.90;;;;;;5120736;27;20047;-57
2022/03/04 10:37:56;;;;;;;13.68;8.07;;;12.70;99.90;;;;;;5116280;27;20052;-56
2022/03/04 10:40:43;;;;;;;10.93;8.13;;;13.00;99.90;;;;;;5103530;27;20043;-56
2022/03/04 10:43:10;;;;;;;8.63;6.57;;;13.10;99.90;;;;;;5105177;27;20043;-56
2022/03/04 10:45:44;;;;;;;10.38;8.02;;;13.10;99.90;;;;;;5104298;28;20612;-56
2022/03/04 10:48:20;;;;;;;11.30;7.75;;;13.20;99.90;;;;;;5101476;28;20074;-56
2022/03/04 10:50:51;;;;;;;11.32;8.50;;;13.30;99.90;;;;;;5106171;28;20130;-57
2022/03/04 10:53:22;;;;;;;11.25;8.07;;;13.30;99.90;;;;;;5106395;28;20083;-57
2022/03/04 10:55:50;;;;;;;15.95;8.00;;;13.40;99.90;;;;;;5105990;28;20044;-58
2022/03/04 10:58:17;;;;;;;11.50;8.82;;;13.50;99.90;;;;;;5100212;28;20048;-57
2022/03/04 11:00:48;;;;;;;12.02;8.27;;;13.50;99.90;;;;;;5085669;28;20063;-58
2022/03/04 11:03:19;;;;;;;12.02;8.85;;;13.50;99.90;;;;;;5090121;28;20481;-59
2022/03/04 11:05:45;;;;;;;10.20;7.65;;;13.60;99.90;;;;;;5106598;28;20058;-59
2022/03/04 11:08:11;;;;;;;9.23;7.57;;;13.70;99.90;;;;;;5097653;28;20435;-57
2022/03/04 11:10:37;;;;;;;12.88;7.35;;;13.70;99.90;;;;;;5093803;28;20089;-56
2022/03/04 11:13:05;;;;;;;12.32;8.23;;;13.50;99.90;;;;;;5094540;28;20040;-56
2022/03/04 11:15:32;;;;;;;9.55;7.35;;;13.60;99.90;;;;;;5086042;28;20073;-57
2022/03/04 11:18:02;;;;;;;10.52;7.60;;;13.40;99.90;;;;;;5100974;28;20086;-56
2022/03/04 11:20:28;;;;;;;11.32;8.30;;;13.30;99.90;;;;;;5102730;28;20647;-56
2022/03/04 11:22:54;;;;;;;12.45;9.20;;;13.50;99.90;;;;;;5106511;28;20050;-56
2022/03/04 11:25:22;;;;;;;11.75;8.82;;;13.40;99.90;;;;;;5087122;28;20040;-57
2022/03/04 11:27:51;;;;;;;11.50;8.15;;;13.40;99.90;;;;;;5091065;28;20044;-56
2022/03/04 11:30:30;;;;;;;12.68;8.82;;;13.40;99.90;;;;;;5105456;28;20579;-57
2022/03/04 11:33:17;;;;;;;13.95;8.63;;;13.40;99.90;;;;;;5104337;28;20067;-56
2022/03/04 11:35:42;;;;;;;13.85;9.32;;;13.20;99.90;;;;;;5104603;28;20056;-56
2022/03/04 11:38:09;;;;;;;13.35;8.27;;;13.60;99.90;;;;;;5103465;28;20443;-58
2022/03/04 11:40:38;;;;;;;13.90;9.25;;;15.50;99.90;;;;;;5095004;28;20086;-56
2022/03/04 11:43:08;;;;;;;12.82;8.40;;;17.40;99.90;;;;;;5092805;28;20048;-57
2022/03/04 11:45:36;;;;;;;11.90;8.75;;;18.80;97.50;;;;;;5102519;28;20105;-56
2022/03/04 11:48:11;;;;;;;12.40;8.43;;;20.30;95.40;;;;;;5090447;28;20039;-56
2022/03/04 11:50:58;;;;;;;14.35;9.45;;;21.00;92.80;;;;;;5103860;28;20054;-57
2022/03/04 11:53:25;;;;;;;15.15;9.80;;;22.30;92.20;;;;;;5087086;27;20052;-57
2022/03/04 11:56:14;;;;;;;12.90;9.32;;;22.70;90.60;;;;;;5089318;28;20619;-59
2022/03/04 11:58:59;;;;;;;11.45;8.88;;;23.50;85.50;;;;;;5099367;28;20051;-58
2022/03/04 12:01:30;;;;;;;;;;;24.00;82.90;;;;;;5115207;27;20043;-56
2022/03/04 12:04:08;;;;;;;12.70;8.52;;;24.40;82.80;;;;;;5110118;27;20322;-61
2022/03/04 12:06:34;;;;;;;10.80;8.50;;;25.20;77.60;;;;;;5103449;28;20047;-56
2022/03/04 12:09:28;;;;;;;11.30;8.63;;;25.40;80.60;;;;;;5102641;28;20108;-57
2022/03/04 12:12:09;;;;;;;;;;;25.00;75.80;;;;;;5103773;28;20321;-56
2022/03/04 12:14:35;;;;;;;11.82;8.70;;;25.50;76.10;;;;;;5102618;28;20282;-57
2022/03/04 12:17:00;;;;;;;12.27;9.75;;;26.10;77.10;;;;;;5096631;28;20097;-56
2022/03/04 12:19:33;;;;;;;13.80;9.35;;;26.20;75.80;;;;;;5106325;27;20545;-56
2022/03/04 12:21:59;;;;;;;12.80;9.70;;;26.40;72.80;;;;;;5083390;28;20485;-56
2022/03/04 12:24:33;;;;;;;15.18;9.93;;;26.30;72.30;;;;;;5088242;28;20127;-56
2022/03/04 12:27:00;;;;;;;13.80;9.25;;;25.70;71.80;;;;;;5087602;28;20051;-56
2022/03/04 12:29:46;;;;;;;14.10;10.32;;;24.90;72.20;;;;;;5091362;28;20056;-57
2022/03/04 12:32:13;;;;;;;15.02;10.07;;;22.90;72.00;;;;;;5087461;28;20052;-56
2022/03/04 12:34:52;;;;;;;12.65;9.52;;;20.40;76.90;;;;;;5101532;28;20410;-56
2022/03/04 12:37:18;;;;;;;13.00;10.02;;;19.30;78.80;;;;;;5102800;28;20048;-56
2022/03/04 12:39:50;;;;;;;13.60;9.85;;;18.40;83.20;;;;;;5092049;28;20051;-58
2022/03/04 12:42:18;;;;;;;12.15;8.85;;;17.70;84.70;;;;;;5101016;28;20043;-57
2022/03/04 12:44:45;;;;;;;12.43;9.07;;;17.10;87.80;;;;;;5094998;28;20048;-57
2022/03/04 12:47:11;;;;;;;12.45;8.52;;;16.60;89.80;;;;;;5084136;28;20051;-57
2022/03/04 12:49:41;;;;;;;12.90;9.93;;;15.90;91.00;;;;;;5091038;28;20055;-57